sensor_id;sensor_type;location;lat;lon;timestamp;temperature;humidity
67598;DHT22;62026;39.230;9.122;2022-08-20T00:00:26;27.30;55.30
67598;DHT22;62026;39.230;9.122;2022-08-20T00:02:57;27.30;55.30
67598;DHT22;62026;39.230;9.122;2022-08-20T00:05:35;27.30;55.30
67598;DHT22;62026;39.230;9.122;2022-08-20T00:08:04;27.30;55.30
67598;DHT22;62026;39.230;9.122;2022-08-20T00:10:32;27.30;55.50
67598;DHT22;62026;39.230;9.122;2022-08-20T00:13:00;27.30;55.40
67598;DHT22;62026;39.230;9.122;2022-08-20T00:15:30;27.30;55.40
67598;DHT22;62026;39.230;9.122;2022-08-20T00:17:58;27.30;55.60
67598;DHT22;62026;39.230;9.122;2022-08-20T00:20:28;27.20;55.50
67598;DHT22;62026;39.230;9.122;2022-08-20T00:22:57;27.20;55.60
67598;DHT22;62026;39.230;9.122;2022-08-20T00:25:24;27.20;55.50
67598;DHT22;62026;39.230;9.122;2022-08-20T00:27:51;27.20;55.30
67598;DHT22;62026;39.230;9.122;2022-08-20T00:30:17;27.20;55.30
67598;DHT22;62026;39.230;9.122;2022-08-20T00:32:53;27.20;55.30
67598;DHT22;62026;39.230;9.122;2022-08-20T00:35:33;27.20;55.20
67598;DHT22;62026;39.230;9.122;2022-08-20T00:38:01;27.20;55.20
67598;DHT22;62026;39.230;9.122;2022-08-20T00:40:32;27.10;55.40
67598;DHT22;62026;39.230;9.122;2022-08-20T00:43:06;27.10;55.40
67598;DHT22;62026;39.230;9.122;2022-08-20T00:45:47;27.10;55.40
67598;DHT22;62026;39.230;9.122;2022-08-20T00:48:15;27.10;55.40
67598;DHT22;62026;39.230;9.122;2022-08-20T00:50:41;27.10;55.40
67598;DHT22;62026;39.230;9.122;2022-08-20T00:53:08;27.10;55.40
67598;DHT22;62026;39.230;9.122;2022-08-20T00:55:35;27.10;55.30
67598;DHT22;62026;39.230;9.122;2022-08-20T00:58:05;27.10;55.30
67598;DHT22;62026;39.230;9.122;2022-08-20T01:00:40;27.10;55.30
67598;DHT22;62026;39.230;9.122;2022-08-20T01:03:12;27.10;55.20
67598;DHT22;62026;39.230;9.122;2022-08-20T01:05:43;27.10;55.30
67598;DHT22;62026;39.230;9.122;2022-08-20T01:08:12;27.10;55.20
67598;DHT22;62026;39.230;9.122;2022-08-20T01:10:42;27.00;55.20
67598;DHT22;62026;39.230;9.122;2022-08-20T01:13:15;27.00;55.30
67598;DHT22;62026;39.230;9.122;2022-08-20T01:15:48;27.00;55.30
67598;DHT22;62026;39.230;9.122;2022-08-20T01:18:25;27.00;55.30
67598;DHT22;62026;39.230;9.122;2022-08-20T01:21:01;27.00;55.30
67598;DHT22;62026;39.230;9.122;2022-08-20T01:23:56;27.00;55.40
67598;DHT22;62026;39.230;9.122;2022-08-20T01:26:33;27.00;55.40
67598;DHT22;62026;39.230;9.122;2022-08-20T01:29:09;27.00;55.50
67598;DHT22;62026;39.230;9.122;2022-08-20T01:31:45;27.00;55.40
67598;DHT22;62026;39.230;9.122;2022-08-20T01:34:15;27.00;55.30
67598;DHT22;62026;39.230;9.122;2022-08-20T01:36:47;27.00;55.50
67598;DHT22;62026;39.230;9.122;2022-08-20T01:39:21;27.00;55.60
67598;DHT22;62026;39.230;9.122;2022-08-20T01:44:32;26.90;55.80
67598;DHT22;62026;39.230;9.122;2022-08-20T01:47:23;26.90;55.80
67598;DHT22;62026;39.230;9.122;2022-08-20T01:49:58;26.90;55.90
67598;DHT22;62026;39.230;9.122;2022-08-20T01:55:30;26.90;55.90
67598;DHT22;62026;39.230;9.122;2022-08-20T01:57:58;26.90;55.90
67598;DHT22;62026;39.230;9.122;2022-08-20T02:00:26;26.90;55.80
67598;DHT22;62026;39.230;9.122;2022-08-20T02:02:52;26.90;55.70
67598;DHT22;62026;39.230;9.122;2022-08-20T02:05:18;26.90;55.70
67598;DHT22;62026;39.230;9.122;2022-08-20T02:07:45;26.90;55.70
67598;DHT22;62026;39.230;9.122;2022-08-20T02:10:14;26.80;55.70
67598;DHT22;62026;39.230;9.122;2022-08-20T02:12:41;26.80;55.70
67598;DHT22;62026;39.230;9.122;2022-08-20T02:15:08;26.80;55.60
67598;DHT22;62026;39.230;9.122;2022-08-20T02:17:36;26.80;55.50
67598;DHT22;62026;39.230;9.122;2022-08-20T02:20:11;26.80;55.60
67598;DHT22;62026;39.230;9.122;2022-08-20T02:22:52;26.80;55.50
67598;DHT22;62026;39.230;9.122;2022-08-20T02:25:22;26.80;55.60
67598;DHT22;62026;39.230;9.122;2022-08-20T02:27:52;26.80;55.50
67598;DHT22;62026;39.230;9.122;2022-08-20T02:30:35;26.80;55.60
67598;DHT22;62026;39.230;9.122;2022-08-20T02:33:07;26.80;55.60
67598;DHT22;62026;39.230;9.122;2022-08-20T02:35:34;26.80;55.60
67598;DHT22;62026;39.230;9.122;2022-08-20T02:38:02;26.80;55.70
67598;DHT22;62026;39.230;9.122;2022-08-20T02:40:30;26.80;55.60
67598;DHT22;62026;39.230;9.122;2022-08-20T02:43:00;26.80;55.60
67598;DHT22;62026;39.230;9.122;2022-08-20T02:45:28;26.80;55.70
67598;DHT22;62026;39.230;9.122;2022-08-20T02:47:56;26.80;55.70
67598;DHT22;62026;39.230;9.122;2022-08-20T02:50:24;26.80;55.80
67598;DHT22;62026;39.230;9.122;2022-08-20T02:52:51;26.80;55.90
67598;DHT22;62026;39.230;9.122;2022-08-20T02:55:19;26.80;55.90
67598;DHT22;62026;39.230;9.122;2022-08-20T02:57:47;26.80;55.90
67598;DHT22;62026;39.230;9.122;2022-08-20T03:00:16;26.70;55.90
67598;DHT22;62026;39.230;9.122;2022-08-20T03:02:44;26.70;56.00
67598;DHT22;62026;39.230;9.122;2022-08-20T03:05:12;26.70;56.00
67598;DHT22;62026;39.230;9.122;2022-08-20T03:07:47;26.70;56.00
67598;DHT22;62026;39.230;9.122;2022-08-20T03:10:15;26.70;56.10
67598;DHT22;62026;39.230;9.122;2022-08-20T03:12:42;26.70;56.10
67598;DHT22;62026;39.230;9.122;2022-08-20T03:15:10;26.70;56.20
67598;DHT22;62026;39.230;9.122;2022-08-20T03:17:36;26.70;56.20
67598;DHT22;62026;39.230;9.122;2022-08-20T03:20:05;26.70;56.50
67598;DHT22;62026;39.230;9.122;2022-08-20T03:22:33;26.70;56.50
67598;DHT22;62026;39.230;9.122;2022-08-20T03:24:59;26.70;56.70
67598;DHT22;62026;39.230;9.122;2022-08-20T03:27:26;26.70;56.80
67598;DHT22;62026;39.230;9.122;2022-08-20T03:29:52;26.70;56.90
67598;DHT22;62026;39.230;9.122;2022-08-20T03:32:18;26.70;57.10
67598;DHT22;62026;39.230;9.122;2022-08-20T03:34:44;26.70;57.20
67598;DHT22;62026;39.230;9.122;2022-08-20T03:37:11;26.70;57.40
67598;DHT22;62026;39.230;9.122;2022-08-20T03:39:37;26.70;57.60
67598;DHT22;62026;39.230;9.122;2022-08-20T03:42:04;26.70;57.80
67598;DHT22;62026;39.230;9.122;2022-08-20T03:44:31;26.70;57.90
67598;DHT22;62026;39.230;9.122;2022-08-20T03:46:57;26.60;57.90
67598;DHT22;62026;39.230;9.122;2022-08-20T03:49:24;26.70;57.90
67598;DHT22;62026;39.230;9.122;2022-08-20T03:51:50;26.60;58.00
67598;DHT22;62026;39.230;9.122;2022-08-20T03:54:17;26.60;58.00
67598;DHT22;62026;39.230;9.122;2022-08-20T03:56:43;26.60;57.90
67598;DHT22;62026;39.230;9.122;2022-08-20T03:59:09;26.60;57.90
67598;DHT22;62026;39.230;9.122;2022-08-20T04:01:35;26.60;58.00
67598;DHT22;62026;39.230;9.122;2022-08-20T04:04:01;26.60;58.00
67598;DHT22;62026;39.230;9.122;2022-08-20T04:06:28;26.60;58.00
67598;DHT22;62026;39.230;9.122;2022-08-20T04:08:55;26.60;58.10
67598;DHT22;62026;39.230;9.122;2022-08-20T04:11:21;26.60;58.10
67598;DHT22;62026;39.230;9.122;2022-08-20T04:13:48;26.60;58.00
67598;DHT22;62026;39.230;9.122;2022-08-20T04:16:14;26.60;58.00
67598;DHT22;62026;39.230;9.122;2022-08-20T04:18:41;26.60;58.10
67598;DHT22;62026;39.230;9.122;2022-08-20T04:21:08;26.60;58.10
67598;DHT22;62026;39.230;9.122;2022-08-20T04:23:34;26.50;58.10
67598;DHT22;62026;39.230;9.122;2022-08-20T04:26:00;26.60;58.00
67598;DHT22;62026;39.230;9.122;2022-08-20T04:28:27;26.50;58.10
67598;DHT22;62026;39.230;9.122;2022-08-20T04:30:55;26.50;58.10
67598;DHT22;62026;39.230;9.122;2022-08-20T04:33:24;26.50;58.20
67598;DHT22;62026;39.230;9.122;2022-08-20T04:35:53;26.50;58.20
67598;DHT22;62026;39.230;9.122;2022-08-20T04:38:21;26.50;58.20
67598;DHT22;62026;39.230;9.122;2022-08-20T04:40:47;26.50;58.30
67598;DHT22;62026;39.230;9.122;2022-08-20T04:43:29;26.50;58.30
67598;DHT22;62026;39.230;9.122;2022-08-20T04:46:03;26.40;58.30
67598;DHT22;62026;39.230;9.122;2022-08-20T04:48:34;26.40;58.30
67598;DHT22;62026;39.230;9.122;2022-08-20T04:51:06;26.40;58.40
67598;DHT22;62026;39.230;9.122;2022-08-20T04:53:33;26.40;58.50
67598;DHT22;62026;39.230;9.122;2022-08-20T04:56:01;26.40;58.50
67598;DHT22;62026;39.230;9.122;2022-08-20T04:58:34;26.40;58.60
67598;DHT22;62026;39.230;9.122;2022-08-20T05:01:10;26.40;58.50
67598;DHT22;62026;39.230;9.122;2022-08-20T05:03:37;26.40;58.60
67598;DHT22;62026;39.230;9.122;2022-08-20T05:06:07;26.40;58.50
67598;DHT22;62026;39.230;9.122;2022-08-20T05:08:34;26.40;58.60
67598;DHT22;62026;39.230;9.122;2022-08-20T05:11:01;26.40;58.60
67598;DHT22;62026;39.230;9.122;2022-08-20T05:13:28;26.40;58.60
67598;DHT22;62026;39.230;9.122;2022-08-20T05:15:54;26.40;58.60
67598;DHT22;62026;39.230;9.122;2022-08-20T05:18:23;26.40;58.60
67598;DHT22;62026;39.230;9.122;2022-08-20T05:20:52;26.40;58.70
67598;DHT22;62026;39.230;9.122;2022-08-20T05:23:19;26.40;58.60
67598;DHT22;62026;39.230;9.122;2022-08-20T05:25:48;26.40;58.70
67598;DHT22;62026;39.230;9.122;2022-08-20T05:28:26;26.40;58.70
67598;DHT22;62026;39.230;9.122;2022-08-20T05:31:00;26.40;58.80
67598;DHT22;62026;39.230;9.122;2022-08-20T05:33:27;26.40;58.70
67598;DHT22;62026;39.230;9.122;2022-08-20T05:35:55;26.40;58.70
67598;DHT22;62026;39.230;9.122;2022-08-20T05:38:26;26.40;58.70
67598;DHT22;62026;39.230;9.122;2022-08-20T05:40:54;26.50;58.70
67598;DHT22;62026;39.230;9.122;2022-08-20T05:43:20;26.50;58.70
67598;DHT22;62026;39.230;9.122;2022-08-20T05:45:47;26.60;58.60
67598;DHT22;62026;39.230;9.122;2022-08-20T05:48:20;26.60;58.40
67598;DHT22;62026;39.230;9.122;2022-08-20T05:50:50;26.70;58.40
67598;DHT22;62026;39.230;9.122;2022-08-20T05:53:19;26.70;58.20
67598;DHT22;62026;39.230;9.122;2022-08-20T05:55:46;26.80;58.20
67598;DHT22;62026;39.230;9.122;2022-08-20T05:58:17;26.80;58.10
67598;DHT22;62026;39.230;9.122;2022-08-20T06:00:54;26.90;58.10
67598;DHT22;62026;39.230;9.122;2022-08-20T06:03:21;26.90;58.00
67598;DHT22;62026;39.230;9.122;2022-08-20T06:06:06;27.00;57.90
67598;DHT22;62026;39.230;9.122;2022-08-20T06:08:33;27.10;57.60
67598;DHT22;62026;39.230;9.122;2022-08-20T06:11:00;27.20;57.50
67598;DHT22;62026;39.230;9.122;2022-08-20T06:13:27;27.20;57.30
67598;DHT22;62026;39.230;9.122;2022-08-20T06:15:54;27.30;57.20
67598;DHT22;62026;39.230;9.122;2022-08-20T06:18:22;27.40;57.20
67598;DHT22;62026;39.230;9.122;2022-08-20T06:20:49;27.40;57.10
67598;DHT22;62026;39.230;9.122;2022-08-20T06:23:15;27.50;57.10
67598;DHT22;62026;39.230;9.122;2022-08-20T06:25:42;27.50;57.10
67598;DHT22;62026;39.230;9.122;2022-08-20T06:28:09;27.50;57.00
67598;DHT22;62026;39.230;9.122;2022-08-20T06:30:35;27.60;56.90
67598;DHT22;62026;39.230;9.122;2022-08-20T06:33:02;27.60;56.90
67598;DHT22;62026;39.230;9.122;2022-08-20T06:35:28;27.70;56.70
67598;DHT22;62026;39.230;9.122;2022-08-20T06:37:54;27.80;56.80
67598;DHT22;62026;39.230;9.122;2022-08-20T06:40:25;27.80;56.70
67598;DHT22;62026;39.230;9.122;2022-08-20T06:42:54;27.80;56.70
67598;DHT22;62026;39.230;9.122;2022-08-20T06:45:27;27.90;56.60
67598;DHT22;62026;39.230;9.122;2022-08-20T06:47:58;27.90;56.40
67598;DHT22;62026;39.230;9.122;2022-08-20T06:50:33;27.90;56.50
67598;DHT22;62026;39.230;9.122;2022-08-20T06:53:05;28.00;56.50
67598;DHT22;62026;39.230;9.122;2022-08-20T06:55:33;28.10;56.30
67598;DHT22;62026;39.230;9.122;2022-08-20T06:58:03;28.10;56.30
67598;DHT22;62026;39.230;9.122;2022-08-20T07:00:37;28.20;56.20
67598;DHT22;62026;39.230;9.122;2022-08-20T07:03:05;28.20;56.20
67598;DHT22;62026;39.230;9.122;2022-08-20T07:05:37;28.20;56.10
67598;DHT22;62026;39.230;9.122;2022-08-20T07:08:11;28.30;56.00
67598;DHT22;62026;39.230;9.122;2022-08-20T07:10:42;28.30;55.90
67598;DHT22;62026;39.230;9.122;2022-08-20T07:13:10;28.40;55.50
67598;DHT22;62026;39.230;9.122;2022-08-20T07:15:37;28.50;55.60
67598;DHT22;62026;39.230;9.122;2022-08-20T07:18:04;28.50;55.60
67598;DHT22;62026;39.230;9.122;2022-08-20T07:20:33;28.50;55.50
67598;DHT22;62026;39.230;9.122;2022-08-20T07:23:01;28.60;55.50
67598;DHT22;62026;39.230;9.122;2022-08-20T07:25:29;28.70;55.30
67598;DHT22;62026;39.230;9.122;2022-08-20T07:28:10;28.80;55.00
67598;DHT22;62026;39.230;9.122;2022-08-20T07:30:41;28.80;54.90
67598;DHT22;62026;39.230;9.122;2022-08-20T07:33:28;28.80;54.70
67598;DHT22;62026;39.230;9.122;2022-08-20T07:35:59;28.90;54.50
67598;DHT22;62026;39.230;9.122;2022-08-20T07:38:26;28.90;54.60
67598;DHT22;62026;39.230;9.122;2022-08-20T07:41:07;28.90;54.50
67598;DHT22;62026;39.230;9.122;2022-08-20T07:43:38;29.10;54.30
67598;DHT22;62026;39.230;9.122;2022-08-20T07:46:06;29.20;54.00
67598;DHT22;62026;39.230;9.122;2022-08-20T07:48:38;29.20;53.70
67598;DHT22;62026;39.230;9.122;2022-08-20T07:51:08;29.20;53.40
67598;DHT22;62026;39.230;9.122;2022-08-20T07:53:36;29.20;53.40
67598;DHT22;62026;39.230;9.122;2022-08-20T07:56:06;29.30;53.10
67598;DHT22;62026;39.230;9.122;2022-08-20T07:58:38;29.40;53.10
67598;DHT22;62026;39.230;9.122;2022-08-20T08:01:07;29.50;52.60
67598;DHT22;62026;39.230;9.122;2022-08-20T08:03:35;29.70;52.30
67598;DHT22;62026;39.230;9.122;2022-08-20T08:06:03;29.70;52.30
67598;DHT22;62026;39.230;9.122;2022-08-20T08:08:30;29.70;52.00
67598;DHT22;62026;39.230;9.122;2022-08-20T08:11:00;29.70;51.80
67598;DHT22;62026;39.230;9.122;2022-08-20T08:13:34;29.80;51.30
67598;DHT22;62026;39.230;9.122;2022-08-20T08:16:07;29.80;51.00
67598;DHT22;62026;39.230;9.122;2022-08-20T08:18:50;29.90;50.60
67598;DHT22;62026;39.230;9.122;2022-08-20T08:21:21;29.90;50.60
67598;DHT22;62026;39.230;9.122;2022-08-20T08:23:48;29.90;50.80
67598;DHT22;62026;39.230;9.122;2022-08-20T08:26:15;30.00;50.50
67598;DHT22;62026;39.230;9.122;2022-08-20T08:28:42;30.00;50.30
67598;DHT22;62026;39.230;9.122;2022-08-20T08:31:11;30.20;49.80
67598;DHT22;62026;39.230;9.122;2022-08-20T08:33:37;30.20;49.10
67598;DHT22;62026;39.230;9.122;2022-08-20T08:36:08;30.20;48.60
67598;DHT22;62026;39.230;9.122;2022-08-20T08:38:38;30.20;48.70
67598;DHT22;62026;39.230;9.122;2022-08-20T08:41:28;30.30;48.70
67598;DHT22;62026;39.230;9.122;2022-08-20T08:44:14;30.30;48.30
67598;DHT22;62026;39.230;9.122;2022-08-20T08:46:46;30.40;48.10
67598;DHT22;62026;39.230;9.122;2022-08-20T08:49:21;30.50;47.30
67598;DHT22;62026;39.230;9.122;2022-08-20T08:52:00;30.60;47.20
67598;DHT22;62026;39.230;9.122;2022-08-20T08:54:55;30.50;46.90
67598;DHT22;62026;39.230;9.122;2022-08-20T08:57:24;30.70;46.60
67598;DHT22;62026;39.230;9.122;2022-08-20T09:00:06;30.80;46.30
67598;DHT22;62026;39.230;9.122;2022-08-20T09:02:38;30.80;46.30
67598;DHT22;62026;39.230;9.122;2022-08-20T09:05:15;30.80;46.00
67598;DHT22;62026;39.230;9.122;2022-08-20T09:07:48;31.00;46.40
67598;DHT22;62026;39.230;9.122;2022-08-20T09:10:17;31.20;46.40
67598;DHT22;62026;39.230;9.122;2022-08-20T09:12:43;31.20;46.10
67598;DHT22;62026;39.230;9.122;2022-08-20T09:15:10;31.10;46.00
67598;DHT22;62026;39.230;9.122;2022-08-20T09:17:37;31.10;46.10
67598;DHT22;62026;39.230;9.122;2022-08-20T09:20:04;31.20;45.90
67598;DHT22;62026;39.230;9.122;2022-08-20T09:22:30;31.20;46.10
67598;DHT22;62026;39.230;9.122;2022-08-20T09:24:58;31.30;45.70
67598;DHT22;62026;39.230;9.122;2022-08-20T09:27:24;31.30;45.20
67598;DHT22;62026;39.230;9.122;2022-08-20T09:29:50;31.10;45.20
67598;DHT22;62026;39.230;9.122;2022-08-20T09:32:22;31.10;44.90
67598;DHT22;62026;39.230;9.122;2022-08-20T09:34:51;31.00;43.10
67598;DHT22;62026;39.230;9.122;2022-08-20T09:37:25;30.90;43.40
67598;DHT22;62026;39.230;9.122;2022-08-20T09:39:53;31.10;43.50
67598;DHT22;62026;39.230;9.122;2022-08-20T09:42:29;31.20;43.60
67598;DHT22;62026;39.230;9.122;2022-08-20T09:44:57;31.30;43.30
67598;DHT22;62026;39.230;9.122;2022-08-20T09:47:25;31.30;43.50
67598;DHT22;62026;39.230;9.122;2022-08-20T09:49:52;31.40;42.90
67598;DHT22;62026;39.230;9.122;2022-08-20T09:52:25;31.50;42.60
67598;DHT22;62026;39.230;9.122;2022-08-20T09:55:00;31.60;42.70
67598;DHT22;62026;39.230;9.122;2022-08-20T09:57:29;31.60;43.30
67598;DHT22;62026;39.230;9.122;2022-08-20T10:00:04;31.60;43.20
67598;DHT22;62026;39.230;9.122;2022-08-20T10:02:38;31.60;42.80
67598;DHT22;62026;39.230;9.122;2022-08-20T10:05:05;31.60;43.20
67598;DHT22;62026;39.230;9.122;2022-08-20T10:07:32;31.60;42.60
67598;DHT22;62026;39.230;9.122;2022-08-20T10:10:00;31.60;42.70
67598;DHT22;62026;39.230;9.122;2022-08-20T10:12:27;31.70;42.70
67598;DHT22;62026;39.230;9.122;2022-08-20T10:14:53;31.70;42.80
67598;DHT22;62026;39.230;9.122;2022-08-20T10:17:20;31.60;42.60
67598;DHT22;62026;39.230;9.122;2022-08-20T10:19:46;31.60;42.50
67598;DHT22;62026;39.230;9.122;2022-08-20T10:22:13;31.50;42.90
67598;DHT22;62026;39.230;9.122;2022-08-20T10:24:39;31.60;42.60
67598;DHT22;62026;39.230;9.122;2022-08-20T10:27:05;31.60;42.70
67598;DHT22;62026;39.230;9.122;2022-08-20T10:29:32;31.60;42.50
67598;DHT22;62026;39.230;9.122;2022-08-20T10:32:08;31.50;42.90
67598;DHT22;62026;39.230;9.122;2022-08-20T10:34:38;31.60;43.40
67598;DHT22;62026;39.230;9.122;2022-08-20T10:37:06;31.60;43.10
67598;DHT22;62026;39.230;9.122;2022-08-20T10:39:33;31.60;42.60
67598;DHT22;62026;39.230;9.122;2022-08-20T10:41:59;31.40;43.00
67598;DHT22;62026;39.230;9.122;2022-08-20T10:44:26;31.40;43.20
67598;DHT22;62026;39.230;9.122;2022-08-20T10:46:52;31.40;42.90
67598;DHT22;62026;39.230;9.122;2022-08-20T10:49:18;31.40;43.10
67598;DHT22;62026;39.230;9.122;2022-08-20T10:51:44;31.40;43.10
67598;DHT22;62026;39.230;9.122;2022-08-20T10:54:10;31.30;43.30
67598;DHT22;62026;39.230;9.122;2022-08-20T10:56:36;31.30;43.10
67598;DHT22;62026;39.230;9.122;2022-08-20T10:59:02;31.30;42.80
67598;DHT22;62026;39.230;9.122;2022-08-20T11:01:28;31.20;43.00
67598;DHT22;62026;39.230;9.122;2022-08-20T11:03:54;31.20;43.00
67598;DHT22;62026;39.230;9.122;2022-08-20T11:06:21;31.20;43.00
67598;DHT22;62026;39.230;9.122;2022-08-20T11:08:48;31.10;43.30
67598;DHT22;62026;39.230;9.122;2022-08-20T11:11:14;31.10;43.60
67598;DHT22;62026;39.230;9.122;2022-08-20T11:13:40;31.10;44.00
67598;DHT22;62026;39.230;9.122;2022-08-20T11:16:06;31.10;44.10
67598;DHT22;62026;39.230;9.122;2022-08-20T11:18:32;31.10;44.20
67598;DHT22;62026;39.230;9.122;2022-08-20T11:20:59;31.10;44.00
67598;DHT22;62026;39.230;9.122;2022-08-20T11:23:26;31.10;44.20
67598;DHT22;62026;39.230;9.122;2022-08-20T11:25:53;31.00;44.60
67598;DHT22;62026;39.230;9.122;2022-08-20T11:28:19;31.00;44.60
67598;DHT22;62026;39.230;9.122;2022-08-20T11:30:45;31.00;44.30
67598;DHT22;62026;39.230;9.122;2022-08-20T11:33:14;31.00;44.00
67598;DHT22;62026;39.230;9.122;2022-08-20T11:35:40;30.90;44.10
67598;DHT22;62026;39.230;9.122;2022-08-20T11:38:06;31.00;44.10
67598;DHT22;62026;39.230;9.122;2022-08-20T11:40:32;31.00;44.00
67598;DHT22;62026;39.230;9.122;2022-08-20T11:42:58;30.90;43.80
67598;DHT22;62026;39.230;9.122;2022-08-20T11:45:25;30.80;43.60
67598;DHT22;62026;39.230;9.122;2022-08-20T11:47:51;30.80;43.50
67598;DHT22;62026;39.230;9.122;2022-08-20T11:50:19;30.70;43.50
67598;DHT22;62026;39.230;9.122;2022-08-20T11:52:46;30.70;43.50
67598;DHT22;62026;39.230;9.122;2022-08-20T11:55:14;30.70;43.50
67598;DHT22;62026;39.230;9.122;2022-08-20T11:57:44;30.70;43.80
67598;DHT22;62026;39.230;9.122;2022-08-20T12:00:16;30.70;43.70
67598;DHT22;62026;39.230;9.122;2022-08-20T12:02:46;30.70;43.80
67598;DHT22;62026;39.230;9.122;2022-08-20T12:05:14;30.70;43.80
67598;DHT22;62026;39.230;9.122;2022-08-20T12:07:40;30.70;43.70
67598;DHT22;62026;39.230;9.122;2022-08-20T12:10:07;30.70;43.50
67598;DHT22;62026;39.230;9.122;2022-08-20T12:12:36;30.70;43.60
67598;DHT22;62026;39.230;9.122;2022-08-20T12:15:04;30.70;43.50
67598;DHT22;62026;39.230;9.122;2022-08-20T12:17:32;30.70;43.20
67598;DHT22;62026;39.230;9.122;2022-08-20T12:20:03;30.70;43.50
67598;DHT22;62026;39.230;9.122;2022-08-20T12:22:32;30.70;43.60
67598;DHT22;62026;39.230;9.122;2022-08-20T12:24:58;30.70;43.90
67598;DHT22;62026;39.230;9.122;2022-08-20T12:27:27;30.60;44.30
67598;DHT22;62026;39.230;9.122;2022-08-20T12:29:56;30.60;44.60
67598;DHT22;62026;39.230;9.122;2022-08-20T12:32:28;30.60;44.30
67598;DHT22;62026;39.230;9.122;2022-08-20T12:34:56;30.60;44.60
67598;DHT22;62026;39.230;9.122;2022-08-20T12:37:25;30.60;44.60
67598;DHT22;62026;39.230;9.122;2022-08-20T12:39:55;30.60;44.80
67598;DHT22;62026;39.230;9.122;2022-08-20T12:42:23;30.60;44.70
67598;DHT22;62026;39.230;9.122;2022-08-20T12:44:50;30.60;44.70
67598;DHT22;62026;39.230;9.122;2022-08-20T12:47:22;30.60;44.40
67598;DHT22;62026;39.230;9.122;2022-08-20T12:49:53;30.60;44.20
67598;DHT22;62026;39.230;9.122;2022-08-20T12:52:22;30.60;44.50
67598;DHT22;62026;39.230;9.122;2022-08-20T12:54:51;30.60;44.70
67598;DHT22;62026;39.230;9.122;2022-08-20T12:57:29;30.50;44.60
67598;DHT22;62026;39.230;9.122;2022-08-20T13:00:00;30.50;44.40
67598;DHT22;62026;39.230;9.122;2022-08-20T13:02:32;30.50;44.30
67598;DHT22;62026;39.230;9.122;2022-08-20T13:04:58;30.50;44.70
67598;DHT22;62026;39.230;9.122;2022-08-20T13:07:25;30.50;44.90
67598;DHT22;62026;39.230;9.122;2022-08-20T13:09:51;30.50;44.80
67598;DHT22;62026;39.230;9.122;2022-08-20T13:12:17;30.50;45.00
67598;DHT22;62026;39.230;9.122;2022-08-20T13:14:43;30.40;44.80
67598;DHT22;62026;39.230;9.122;2022-08-20T13:17:09;30.40;45.00
67598;DHT22;62026;39.230;9.122;2022-08-20T13:19:37;30.40;45.40
67598;DHT22;62026;39.230;9.122;2022-08-20T13:22:04;30.40;45.40
67598;DHT22;62026;39.230;9.122;2022-08-20T13:24:30;30.40;45.40
67598;DHT22;62026;39.230;9.122;2022-08-20T13:27:24;30.40;45.20
67598;DHT22;62026;39.230;9.122;2022-08-20T13:29:52;30.40;45.20
67598;DHT22;62026;39.230;9.122;2022-08-20T13:32:21;30.40;45.40
67598;DHT22;62026;39.230;9.122;2022-08-20T13:34:48;30.40;45.50
67598;DHT22;62026;39.230;9.122;2022-08-20T13:37:21;30.30;45.50
67598;DHT22;62026;39.230;9.122;2022-08-20T13:39:48;30.30;45.60
67598;DHT22;62026;39.230;9.122;2022-08-20T13:42:15;30.30;45.80
67598;DHT22;62026;39.230;9.122;2022-08-20T13:44:41;30.30;45.70
67598;DHT22;62026;39.230;9.122;2022-08-20T13:49:47;30.30;45.40
67598;DHT22;62026;39.230;9.122;2022-08-20T13:52:19;30.30;45.50
67598;DHT22;62026;39.230;9.122;2022-08-20T13:54:45;30.30;45.40
67598;DHT22;62026;39.230;9.122;2022-08-20T13:57:14;30.30;45.60
67598;DHT22;62026;39.230;9.122;2022-08-20T13:59:46;30.30;45.90
67598;DHT22;62026;39.230;9.122;2022-08-20T14:02:16;30.30;46.20
67598;DHT22;62026;39.230;9.122;2022-08-20T14:04:44;30.20;46.50
67598;DHT22;62026;39.230;9.122;2022-08-20T14:07:18;30.20;46.70
67598;DHT22;62026;39.230;9.122;2022-08-20T14:09:48;30.20;46.40
67598;DHT22;62026;39.230;9.122;2022-08-20T14:12:18;30.20;46.20
67598;DHT22;62026;39.230;9.122;2022-08-20T14:14:48;30.20;46.20
67598;DHT22;62026;39.230;9.122;2022-08-20T14:19:50;30.20;45.80
67598;DHT22;62026;39.230;9.122;2022-08-20T14:22:18;30.20;45.90
67598;DHT22;62026;39.230;9.122;2022-08-20T14:24:46;30.10;46.00
67598;DHT22;62026;39.230;9.122;2022-08-20T14:27:15;30.20;46.10
67598;DHT22;62026;39.230;9.122;2022-08-20T14:29:44;30.20;46.40
67598;DHT22;62026;39.230;9.122;2022-08-20T14:32:12;30.10;46.10
67598;DHT22;62026;39.230;9.122;2022-08-20T14:34:39;30.10;46.00
67598;DHT22;62026;39.230;9.122;2022-08-20T14:37:18;30.20;45.80
67598;DHT22;62026;39.230;9.122;2022-08-20T14:39:51;30.20;45.80
67598;DHT22;62026;39.230;9.122;2022-08-20T14:42:19;30.10;46.20
67598;DHT22;62026;39.230;9.122;2022-08-20T14:44:49;30.10;46.60
67598;DHT22;62026;39.230;9.122;2022-08-20T14:47:18;30.10;46.90
67598;DHT22;62026;39.230;9.122;2022-08-20T14:49:48;30.10;46.80
67598;DHT22;62026;39.230;9.122;2022-08-20T14:52:16;30.20;46.80
67598;DHT22;62026;39.230;9.122;2022-08-20T14:54:44;30.10;46.70
67598;DHT22;62026;39.230;9.122;2022-08-20T14:57:13;30.10;46.90
67598;DHT22;62026;39.230;9.122;2022-08-20T14:59:40;30.10;46.60
67598;DHT22;62026;39.230;9.122;2022-08-20T15:02:08;30.10;46.60
67598;DHT22;62026;39.230;9.122;2022-08-20T15:04:37;30.10;46.70
67598;DHT22;62026;39.230;9.122;2022-08-20T15:07:05;30.10;46.90
67598;DHT22;62026;39.230;9.122;2022-08-20T15:09:38;30.10;46.80
67598;DHT22;62026;39.230;9.122;2022-08-20T15:12:05;30.10;46.80
67598;DHT22;62026;39.230;9.122;2022-08-20T15:14:31;30.10;47.00
67598;DHT22;62026;39.230;9.122;2022-08-20T15:16:57;30.10;47.10
67598;DHT22;62026;39.230;9.122;2022-08-20T15:19:23;30.10;47.20
67598;DHT22;62026;39.230;9.122;2022-08-20T15:21:49;30.10;47.40
67598;DHT22;62026;39.230;9.122;2022-08-20T15:24:16;30.10;47.70
67598;DHT22;62026;39.230;9.122;2022-08-20T15:26:42;30.10;47.80
67598;DHT22;62026;39.230;9.122;2022-08-20T15:29:08;30.10;47.70
67598;DHT22;62026;39.230;9.122;2022-08-20T15:31:34;30.10;48.10
67598;DHT22;62026;39.230;9.122;2022-08-20T15:34:00;30.10;48.20
67598;DHT22;62026;39.230;9.122;2022-08-20T15:36:26;30.10;48.20
67598;DHT22;62026;39.230;9.122;2022-08-20T15:38:52;30.10;48.10
67598;DHT22;62026;39.230;9.122;2022-08-20T15:41:19;30.10;47.80
67598;DHT22;62026;39.230;9.122;2022-08-20T15:43:45;30.00;47.80
67598;DHT22;62026;39.230;9.122;2022-08-20T15:46:11;30.00;47.80
67598;DHT22;62026;39.230;9.122;2022-08-20T15:48:42;30.00;48.00
67598;DHT22;62026;39.230;9.122;2022-08-20T15:51:33;30.00;48.50
67598;DHT22;62026;39.230;9.122;2022-08-20T15:54:28;30.10;48.60